createdAt,value
2019-05-02T00:00:15.157Z,57.87
2019-05-02T00:02:43.404Z,59.17
2019-05-02T00:05:12.103Z,58.43
2019-05-02T00:07:41.431Z,54.60
2019-05-02T00:10:11.280Z,59.73
2019-05-02T00:12:40.034Z,59.57
2019-05-02T00:15:08.236Z,58.13
2019-05-02T00:17:36.544Z,56.67
2019-05-02T00:20:08.051Z,59.40
2019-05-02T00:22:36.251Z,59.63
2019-05-02T00:25:06.299Z,57.17
2019-05-02T00:27:37.791Z,62.63
2019-05-02T00:30:06.717Z,59.10
2019-05-02T00:32:34.926Z,60.70
2019-05-02T00:35:03.763Z,59.13
2019-05-02T00:37:32.000Z,59.20
2019-05-02T00:40:00.202Z,63.13
2019-05-02T00:42:28.403Z,63.10
2019-05-02T00:44:56.616Z,64.23
2019-05-02T00:47:26.472Z,63.30
2019-05-02T00:49:54.952Z,66.27
2019-05-02T00:52:23.154Z,65.90
2019-05-02T00:54:54.942Z,62.20
2019-05-02T00:57:21.776Z,59.13
2019-05-02T00:59:50.121Z,61.53
2019-05-02T01:02:19.968Z,64.00
2019-05-02T01:04:50.051Z,60.97
2019-05-02T01:07:20.368Z,63.33
2019-05-02T01:09:48.533Z,64.70
2019-05-02T01:12:26.116Z,62.00
2019-05-02T01:14:46.756Z,64.00
2019-05-02T01:17:14.947Z,66.13
2019-05-02T01:19:47.146Z,61.77
2019-05-02T01:22:15.994Z,69.73
2019-05-02T01:24:43.028Z,63.37
2019-05-02T01:27:13.151Z,61.03
2019-05-02T01:30:01.460Z,66.50
2019-05-02T01:32:33.916Z,65.20
2019-05-02T01:35:09.739Z,65.30
2019-05-02T01:37:56.251Z,62.63
2019-05-02T01:40:24.780Z,64.70
2019-05-02T01:42:53.979Z,65.23
2019-05-02T01:45:22.184Z,71.20
2019-05-02T01:47:50.415Z,62.57
2019-05-02T01:50:18.607Z,74.97
2019-05-02T01:52:46.812Z,73.20
2019-05-02T01:55:17.085Z,70.60
2019-05-02T01:57:45.999Z,68.93
2019-05-02T02:00:14.344Z,67.80
2019-05-02T02:02:42.558Z,71.13
2019-05-02T02:05:10.764Z,75.00
2019-05-02T02:07:39.210Z,76.03
2019-05-02T02:10:07.415Z,68.00
2019-05-02T02:12:35.622Z,75.47
2019-05-02T02:15:05.260Z,70.67
2019-05-02T02:17:33.463Z,73.07
2019-05-02T02:20:03.315Z,73.43
2019-05-02T02:22:41.037Z,73.07
2019-05-02T02:25:32.250Z,72.20
2019-05-02T02:27:59.676Z,75.83
2019-05-02T02:30:29.225Z,71.57
2019-05-02T02:33:00.383Z,78.50
2019-05-02T02:35:27.360Z,81.60
2019-05-02T02:37:55.895Z,78.63
2019-05-02T02:40:32.798Z,76.77
2019-05-02T02:42:54.408Z,73.70
2019-05-02T02:45:34.048Z,77.87
2019-05-02T02:48:02.671Z,79.40
2019-05-02T02:50:36.915Z,78.70
2019-05-02T02:53:01.240Z,83.03
2019-05-02T02:55:29.695Z,78.13
2019-05-02T02:57:58.481Z,72.07
2019-05-02T03:00:27.828Z,82.90
2019-05-02T03:02:56.268Z,75.77
2019-05-02T03:05:25.960Z,76.40
2019-05-02T03:07:59.445Z,77.80
2019-05-02T03:10:24.333Z,72.17
2019-05-02T03:13:15.225Z,81.13
2019-05-02T03:15:42.246Z,76.70
2019-05-02T03:18:10.451Z,78.13
2019-05-02T03:20:40.575Z,75.73
2019-05-02T03:23:14.663Z,80.30
2019-05-02T03:25:50.680Z,75.70
2019-05-02T03:28:17.905Z,80.00
2019-05-02T03:30:38.435Z,79.37
2019-05-02T03:33:11.364Z,75.07
2019-05-02T03:35:43.806Z,85.67
2019-05-02T03:38:07.052Z,82.43
2019-05-02T03:40:38.913Z,82.33
2019-05-02T03:43:05.376Z,79.53
2019-05-02T03:45:40.271Z,72.20
2019-05-02T03:48:03.489Z,79.37
2019-05-02T03:50:35.078Z,73.60
2019-05-02T03:53:02.239Z,83.40
2019-05-02T03:55:33.736Z,81.17
2019-05-02T03:58:12.805Z,85.33
2019-05-02T04:00:30.793Z,82.83
2019-05-02T04:03:01.983Z,82.50
2019-05-02T04:05:33.823Z,81.63
2019-05-02T04:07:59.195Z,87.57
2019-05-02T04:10:46.083Z,80.70
2019-05-02T04:13:14.566Z,87.67
2019-05-02T04:15:43.500Z,84.13
2019-05-02T04:18:15.343Z,86.73
2019-05-02T04:20:43.642Z,89.33
2019-05-02T04:23:12.929Z,85.97
2019-05-02T04:25:41.368Z,80.63
2019-05-02T04:28:12.485Z,80.70
2019-05-02T04:30:45.171Z,89.00
2019-05-02T04:33:09.701Z,84.43
2019-05-02T04:35:37.905Z,86.13
2019-05-02T04:38:15.728Z,89.40
2019-05-02T04:40:44.259Z,82.50
2019-05-02T04:43:10.560Z,80.93
2019-05-02T04:45:51.901Z,77.57
2019-05-02T04:48:08.441Z,84.87
2019-05-02T04:50:37.882Z,86.50
2019-05-02T04:53:08.654Z,84.27
2019-05-02T04:55:38.077Z,86.97
2019-05-02T04:58:08.410Z,88.90
2019-05-02T05:00:38.934Z,92.43
2019-05-02T05:03:07.137Z,82.47
2019-05-02T05:05:40.014Z,81.63
2019-05-02T05:08:07.754Z,82.67
2019-05-02T05:10:41.469Z,90.73
2019-05-02T05:13:07.632Z,82.87
2019-05-02T05:15:43.204Z,87.23
2019-05-02T05:18:10.481Z,82.80
2019-05-02T05:20:38.484Z,90.60
2019-05-02T05:23:08.094Z,91.87
2019-05-02T05:25:37.859Z,92.27
2019-05-02T05:28:09.099Z,95.30
2019-05-02T05:30:44.921Z,90.73
2019-05-02T05:33:10.177Z,98.73
2019-05-02T05:35:38.541Z,101.30
2019-05-02T05:38:07.764Z,90.53
2019-05-02T05:40:37.630Z,93.57
2019-05-02T05:43:13.678Z,90.33
2019-05-02T05:45:48.661Z,92.43
2019-05-02T05:48:08.146Z,94.40
2019-05-02T05:50:39.765Z,99.47
2019-05-02T05:53:07.928Z,94.67
2019-05-02T05:55:38.207Z,99.50
2019-05-02T05:58:13.173Z,99.53
2019-05-02T06:00:38.050Z,97.80
2019-05-02T06:03:13.185Z,95.20
2019-05-02T06:05:40.448Z,100.97
2019-05-02T06:08:08.142Z,98.87
2019-05-02T06:10:39.072Z,100.43
2019-05-02T06:13:10.816Z,101.83
2019-05-02T06:15:39.006Z,100.97
2019-05-02T06:18:06.315Z,98.10
2019-05-02T06:20:34.563Z,97.97
2019-05-02T06:23:03.047Z,96.17
2019-05-02T06:25:34.407Z,97.57
2019-05-02T06:28:05.343Z,93.40
2019-05-02T06:30:31.228Z,98.33
2019-05-02T06:33:00.585Z,93.90
2019-05-02T06:35:28.791Z,99.00
2019-05-02T06:37:57.006Z,101.00
2019-05-02T06:40:25.217Z,96.53
2019-05-02T06:42:53.415Z,98.27
2019-05-02T06:45:21.627Z,94.80
2019-05-02T06:47:49.829Z,94.30
2019-05-02T06:50:18.047Z,91.20
2019-05-02T06:52:46.249Z,94.60
2019-05-02T06:55:14.459Z,89.97
2019-05-02T06:57:42.659Z,101.03
2019-05-02T07:00:10.869Z,96.03
2019-05-02T07:02:39.086Z,100.10
2019-05-02T07:05:07.455Z,97.80
2019-05-02T07:07:37.075Z,95.43
2019-05-02T07:10:07.555Z,94.33
2019-05-02T07:12:36.300Z,95.03
2019-05-02T07:15:08.539Z,98.43
2019-05-02T07:17:41.279Z,95.57
2019-05-02T07:20:10.391Z,88.97
2019-05-02T07:22:40.681Z,97.77
2019-05-02T07:25:08.922Z,96.40
2019-05-02T07:27:39.200Z,92.20
2019-05-02T07:30:07.810Z,99.87
2019-05-02T07:32:36.013Z,96.50
2019-05-02T07:35:06.256Z,96.23
2019-05-02T07:37:34.471Z,98.07
2019-05-02T07:40:03.368Z,104.13
2019-05-02T07:42:31.571Z,97.27
2019-05-02T07:45:04.396Z,99.93
2019-05-02T07:47:34.481Z,95.27
2019-05-02T07:49:59.651Z,96.47
2019-05-02T07:52:28.841Z,101.90
2019-05-02T07:55:01.109Z,101.80
2019-05-02T07:57:30.409Z,95.97
2019-05-02T08:00:00.449Z,98.73
2019-05-02T08:02:27.398Z,106.67
2019-05-02T08:04:55.820Z,100.37
2019-05-02T08:07:27.182Z,101.57
2019-05-02T08:09:54.282Z,103.93
2019-05-02T08:12:22.503Z,104.37
2019-05-02T08:14:50.711Z,105.77
2019-05-02T08:17:19.320Z,100.90
2019-05-02T08:19:47.764Z,102.03
2019-05-02T08:22:15.996Z,109.13
2019-05-02T08:24:44.193Z,102.00
2019-05-02T08:27:23.312Z,107.17
2019-05-02T08:29:52.772Z,102.87
2019-05-02T08:32:21.342Z,97.77
2019-05-02T08:34:52.016Z,96.73
2019-05-02T08:37:19.487Z,99.60
2019-05-02T08:39:47.681Z,98.50
2019-05-02T08:42:15.901Z,92.77
2019-05-02T08:44:51.251Z,100.87
2019-05-02T08:47:19.176Z,103.30
2019-05-02T08:49:43.991Z,104.50
2019-05-02T08:52:12.219Z,100.07
2019-05-02T08:54:40.420Z,100.30
2019-05-02T08:57:08.904Z,99.03
2019-05-02T08:59:37.398Z,93.97
2019-05-02T09:02:05.607Z,100.50
2019-05-02T09:04:34.142Z,92.93
2019-05-02T09:07:02.507Z,96.47
2019-05-02T09:09:31.101Z,90.40
2019-05-02T09:12:11.382Z,93.87
2019-05-02T09:14:29.821Z,93.30
2019-05-02T09:17:00.291Z,87.40
2019-05-02T09:19:27.976Z,92.13
2019-05-02T09:21:56.507Z,99.50
2019-05-02T09:24:24.711Z,89.10
2019-05-02T09:26:52.917Z,86.03
2019-05-02T09:29:22.253Z,82.87
2019-05-02T09:31:52.523Z,86.67
2019-05-02T09:34:22.933Z,79.30
2019-05-02T09:36:52.999Z,80.50
2019-05-02T09:39:22.780Z,80.50
2019-05-02T09:41:52.719Z,81.20
2019-05-02T09:44:22.417Z,80.43
2019-05-02T09:46:53.109Z,81.77
2019-05-02T09:49:22.068Z,76.03
2019-05-02T09:51:58.880Z,74.70
2019-05-02T09:54:22.827Z,75.07
2019-05-02T09:56:52.184Z,73.90
2019-05-02T09:59:29.193Z,74.57
2019-05-02T10:01:52.706Z,69.47
2019-05-02T10:04:22.442Z,76.10
2019-05-02T10:06:52.443Z,70.60
2019-05-02T10:09:24.088Z,70.03
2019-05-02T10:11:52.526Z,76.53
2019-05-02T10:14:22.599Z,72.60
2019-05-02T10:16:53.002Z,76.13
2019-05-02T10:19:25.750Z,71.03
2019-05-02T10:21:54.871Z,66.30
2019-05-02T10:24:22.184Z,64.43
2019-05-02T10:26:55.151Z,65.03
2019-05-02T10:29:28.103Z,65.83
2019-05-02T10:31:52.480Z,58.30
2019-05-02T10:34:22.384Z,55.33
2019-05-02T10:36:54.174Z,57.20
2019-05-02T10:39:20.214Z,58.00
2019-05-02T10:41:48.413Z,55.77
2019-05-02T10:44:16.752Z,52.27
2019-05-02T10:46:55.678Z,47.70
2019-05-02T10:49:25.530Z,48.27
2019-05-02T10:51:54.793Z,48.40
2019-05-02T10:54:23.218Z,50.17
2019-05-02T10:56:51.915Z,48.27
2019-05-02T10:59:22.098Z,45.83
2019-05-02T11:01:52.240Z,44.23
2019-05-02T11:04:22.480Z,44.50
2019-05-02T11:06:51.816Z,48.67
2019-05-02T11:09:22.500Z,49.07
2019-05-02T11:11:51.849Z,47.00
2019-05-02T11:14:25.000Z,44.03
2019-05-02T11:17:01.758Z,44.17
2019-05-02T11:19:37.733Z,45.23
2019-05-02T11:22:06.209Z,43.50
2019-05-02T11:24:34.399Z,58.87
2019-05-02T11:27:02.680Z,51.93
2019-05-02T11:29:32.255Z,45.17
2019-05-02T11:32:02.609Z,40.30
2019-05-02T11:34:32.669Z,34.63
2019-05-02T11:37:01.756Z,32.73
2019-05-02T11:39:37.238Z,38.60
2019-05-02T11:42:01.955Z,35.27
2019-05-02T11:44:29.996Z,31.77
2019-05-02T11:46:58.222Z,31.60
2019-05-02T11:49:26.416Z,34.17
2019-05-02T11:51:57.074Z,27.90
2019-05-02T11:54:27.506Z,31.80
2019-05-02T11:56:54.765Z,32.67
2019-05-02T11:59:27.836Z,29.73
2019-05-02T12:02:00.127Z,28.20
2019-05-02T12:04:27.659Z,34.13
2019-05-02T12:07:00.927Z,28.07
2019-05-02T12:09:26.173Z,30.00
2019-05-02T12:11:56.632Z,31.97
2019-05-02T12:14:27.536Z,32.80
2019-05-02T12:16:54.755Z,36.63
2019-05-02T12:19:22.971Z,38.13
2019-05-02T12:21:55.335Z,30.20
2019-05-02T12:24:23.841Z,30.83
2019-05-02T12:26:52.802Z,34.53
2019-05-02T12:29:21.843Z,36.77
2019-05-02T12:31:54.757Z,32.23
2019-05-02T12:34:21.708Z,31.60
2019-05-02T12:36:49.974Z,30.90
2019-05-02T12:39:18.180Z,34.63
2019-05-02T12:41:46.673Z,34.80
2019-05-02T12:44:15.463Z,30.37
2019-05-02T12:46:43.678Z,29.70
2019-05-02T12:49:24.318Z,39.57
2019-05-02T12:51:42.930Z,35.23
2019-05-02T12:54:12.360Z,36.23
2019-05-02T12:56:41.872Z,33.33
2019-05-02T12:59:11.809Z,28.80
2019-05-02T13:01:42.038Z,29.37
2019-05-02T13:04:12.489Z,31.67
2019-05-02T13:06:42.143Z,31.57
2019-05-02T13:09:12.665Z,27.43
2019-05-02T13:11:45.654Z,30.67
2019-05-02T13:14:18.983Z,30.47
2019-05-02T13:16:43.094Z,27.97
2019-05-02T13:19:11.942Z,30.57
2019-05-02T13:21:50.274Z,29.47
2019-05-02T13:24:19.168Z,31.27
2019-05-02T13:26:52.016Z,25.13
2019-05-02T13:29:17.544Z,27.27
2019-05-02T13:31:47.392Z,26.90
2019-05-02T13:34:23.187Z,28.53
2019-05-02T13:36:52.584Z,26.50
2019-05-02T13:39:34.376Z,28.87
2019-05-02T13:42:02.676Z,29.07
2019-05-02T13:44:35.752Z,28.20
2019-05-02T13:47:07.244Z,22.93
2019-05-02T13:49:35.457Z,25.03
2019-05-02T13:52:03.668Z,25.03
2019-05-02T13:54:33.024Z,21.43
2019-05-02T13:57:03.078Z,21.50
2019-05-02T13:59:31.239Z,19.00
2019-05-02T14:02:02.596Z,22.00
2019-05-02T14:04:32.523Z,18.37
2019-05-02T14:07:02.805Z,15.27
2019-05-02T14:09:35.303Z,16.43
2019-05-02T14:12:05.439Z,19.03
2019-05-02T14:14:33.661Z,22.27
2019-05-02T14:17:03.063Z,18.73
2019-05-02T14:19:31.954Z,21.87
2019-05-02T14:22:00.559Z,21.30
2019-05-02T14:24:29.254Z,20.53
2019-05-02T14:26:58.320Z,16.93
2019-05-02T14:29:26.527Z,17.47
2019-05-02T14:31:54.731Z,13.27
2019-05-02T14:34:30.492Z,13.13
2019-05-02T14:36:59.476Z,10.37
2019-05-02T14:39:27.980Z,14.10
2019-05-02T14:41:56.190Z,12.80
2019-05-02T14:44:30.348Z,14.20
2019-05-02T14:46:54.617Z,13.33
2019-05-02T14:49:25.501Z,16.17
2019-05-02T14:51:57.305Z,12.90
2019-05-02T14:54:23.380Z,14.60
2019-05-02T14:56:53.235Z,13.53
2019-05-02T14:59:22.737Z,11.67
2019-05-02T15:01:52.903Z,12.33
2019-05-02T15:04:22.638Z,13.43
2019-05-02T15:06:52.541Z,13.53
2019-05-02T15:09:22.492Z,13.87
2019-05-02T15:12:03.153Z,16.90
2019-05-02T15:14:33.216Z,17.30
2019-05-02T15:17:02.617Z,16.20
2019-05-02T15:19:32.996Z,18.00
2019-05-02T15:22:02.098Z,29.60
2019-05-02T15:24:33.310Z,14.83
2019-05-02T15:27:03.026Z,21.03
2019-05-02T15:29:32.122Z,18.33
2019-05-02T15:32:17.044Z,14.77
2019-05-02T15:35:02.436Z,18.67
2019-05-02T15:37:32.199Z,16.60
2019-05-02T15:42:32.672Z,16.87
2019-05-02T15:45:01.911Z,22.67
2019-05-02T15:47:32.043Z,17.70
2019-05-02T15:50:00.376Z,18.37
2019-05-02T15:52:30.228Z,19.00
2019-05-02T15:55:00.568Z,18.10
2019-05-02T15:57:38.137Z,19.90
2019-05-02T15:59:59.174Z,19.70
2019-05-02T16:02:29.029Z,25.27
2019-05-02T16:05:01.693Z,22.43
2019-05-02T16:07:27.200Z,23.47
2019-05-02T16:09:59.345Z,21.90
2019-05-02T16:12:27.031Z,21.77
2019-05-02T16:14:55.271Z,22.77
2019-05-02T16:17:25.817Z,25.57
2019-05-02T16:19:58.742Z,24.03
2019-05-02T16:22:25.655Z,21.37
2019-05-02T16:24:56.523Z,24.27
2019-05-02T16:27:44.298Z,27.63
2019-05-02T16:30:13.843Z,20.63
2019-05-02T16:32:44.283Z,19.50
2019-05-02T16:35:17.268Z,21.60
2019-05-02T16:37:46.866Z,21.80
2019-05-02T16:40:13.068Z,21.47
2019-05-02T16:42:41.941Z,19.33
2019-05-02T16:45:11.780Z,20.30
2019-05-02T16:47:42.151Z,21.83
2019-05-02T16:50:12.052Z,21.17
2019-05-02T16:52:43.656Z,24.63
2019-05-02T16:55:13.717Z,23.23
2019-05-02T16:57:42.383Z,19.03
2019-05-02T17:00:13.416Z,20.20
2019-05-02T17:02:43.557Z,20.57
2019-05-02T17:05:12.062Z,22.50
2019-05-02T17:07:48.201Z,19.00
2019-05-02T17:10:18.310Z,20.03
2019-05-02T17:12:47.371Z,24.63
2019-05-02T17:15:36.055Z,24.20
2019-05-02T17:18:12.699Z,21.57
2019-05-02T17:20:35.435Z,20.23
2019-05-02T17:23:07.371Z,18.77
2019-05-02T17:25:33.591Z,23.17
2019-05-02T17:28:06.983Z,22.83
2019-05-02T17:30:38.578Z,21.37
2019-05-02T17:33:01.948Z,21.97
2019-05-02T17:35:30.284Z,17.70
2019-05-02T17:37:58.509Z,19.90
2019-05-02T17:40:26.716Z,17.53
2019-05-02T17:42:57.200Z,17.97
2019-05-02T17:45:25.099Z,16.73
2019-05-02T17:47:53.303Z,15.73
2019-05-02T17:50:42.082Z,15.30
2019-05-02T17:53:11.511Z,16.23
2019-05-02T17:55:40.850Z,13.77
2019-05-02T17:58:16.039Z,16.13
2019-05-02T18:00:43.059Z,14.80
2019-05-02T18:03:12.433Z,16.90
2019-05-02T18:05:41.987Z,14.90
2019-05-02T18:08:13.001Z,17.97
2019-05-02T18:10:41.811Z,15.60
2019-05-02T18:13:12.022Z,15.43
2019-05-02T18:15:41.709Z,12.53
2019-05-02T18:18:10.097Z,13.60
2019-05-02T18:20:42.751Z,14.80
2019-05-02T18:23:08.215Z,18.20
2019-05-02T18:25:36.415Z,17.23
2019-05-02T18:28:04.628Z,14.90
2019-05-02T18:30:32.828Z,14.63
2019-05-02T18:33:03.535Z,16.87
2019-05-02T18:35:32.532Z,15.00
2019-05-02T18:38:02.535Z,17.90
2019-05-02T18:40:32.114Z,17.00
2019-05-02T18:43:01.977Z,16.40
2019-05-02T18:45:31.866Z,15.30
2019-05-02T18:48:05.185Z,14.43
2019-05-02T18:50:36.763Z,17.33
2019-05-02T18:53:04.786Z,16.50
2019-05-02T18:55:32.993Z,12.87
2019-05-02T18:58:03.792Z,19.00
2019-05-02T19:00:36.114Z,16.63
2019-05-02T19:03:02.807Z,17.23
2019-05-02T19:05:32.549Z,21.33
2019-05-02T19:08:02.465Z,17.07
2019-05-02T19:10:32.353Z,17.73
2019-05-02T19:13:04.416Z,15.20
2019-05-02T19:15:34.102Z,15.93
2019-05-02T19:18:02.451Z,13.40
2019-05-02T19:20:33.779Z,13.90
2019-05-02T19:23:02.847Z,16.03
2019-05-02T19:25:32.172Z,11.00
2019-05-02T19:28:05.089Z,10.83
2019-05-02T19:30:34.932Z,9.40
2019-05-02T19:33:07.681Z,8.00
2019-05-02T19:35:37.554Z,7.73
2019-05-02T19:38:03.104Z,7.60
2019-05-02T19:40:31.825Z,6.27
2019-05-02T19:43:05.980Z,8.63
2019-05-02T19:45:32.561Z,6.97
2019-05-02T19:48:02.614Z,8.00
2019-05-02T19:50:41.446Z,7.33
2019-05-02T19:53:05.543Z,7.03
2019-05-02T19:55:34.876Z,7.27
2019-05-02T19:58:06.450Z,7.43
2019-05-02T20:00:36.594Z,7.73
2019-05-02T20:03:03.182Z,5.70
2019-05-02T20:05:32.258Z,6.00
2019-05-02T20:08:02.383Z,5.40
2019-05-02T20:10:32.130Z,4.87
2019-05-02T20:13:00.367Z,5.77
2019-05-02T20:15:30.953Z,6.00
2019-05-02T20:18:00.779Z,4.13
2019-05-02T20:20:55.040Z,3.67
2019-05-02T20:23:28.373Z,5.17
2019-05-02T20:25:53.164Z,3.87
2019-05-02T20:28:21.798Z,5.27
2019-05-02T20:30:50.149Z,5.07
2019-05-02T20:33:18.540Z,5.40
2019-05-02T20:35:46.752Z,3.83
2019-05-02T20:38:14.945Z,3.87
2019-05-02T20:40:43.146Z,5.27
2019-05-02T20:43:12.200Z,4.80
2019-05-02T20:45:40.729Z,4.80
2019-05-02T20:48:08.945Z,4.77
2019-05-02T20:50:37.154Z,5.17
2019-05-02T20:53:05.335Z,5.27
2019-05-02T20:55:33.555Z,6.30
2019-05-02T20:58:02.200Z,6.23
2019-05-02T21:00:32.197Z,5.17
2019-05-02T21:03:02.483Z,6.57
2019-05-02T21:05:47.536Z,6.57
2019-05-02T21:08:26.207Z,6.60
2019-05-02T21:10:58.971Z,6.50
2019-05-02T21:13:27.159Z,7.00
2019-05-02T21:15:56.148Z,6.03
2019-05-02T21:18:24.539Z,5.90
2019-05-02T21:20:52.799Z,6.40
2019-05-02T21:23:21.854Z,6.47
2019-05-02T21:25:52.360Z,7.23
2019-05-02T21:28:22.525Z,6.03
2019-05-02T21:30:52.385Z,7.53
2019-05-02T21:33:32.624Z,5.63
2019-05-02T21:36:01.536Z,5.77
2019-05-02T21:38:31.819Z,7.00
2019-05-02T21:40:59.787Z,6.17
2019-05-02T21:43:28.239Z,7.10
2019-05-02T21:45:56.510Z,6.53
2019-05-02T21:48:26.272Z,5.70
2019-05-02T21:51:14.520Z,6.07
2019-05-02T21:53:54.839Z,5.63
2019-05-02T21:56:17.498Z,6.73
2019-05-02T21:59:03.624Z,5.00
2019-05-02T22:01:32.984Z,6.00
2019-05-02T22:04:02.293Z,5.90
2019-05-02T22:06:32.309Z,5.60
2019-05-02T22:09:00.668Z,4.37
2019-05-02T22:11:29.237Z,5.17
2019-05-02T22:13:57.426Z,5.60
2019-05-02T22:16:25.883Z,5.83
2019-05-02T22:18:54.202Z,5.10
2019-05-02T22:21:22.833Z,4.47
2019-05-02T22:23:52.025Z,5.03
2019-05-02T22:26:22.005Z,5.47
2019-05-02T22:28:53.612Z,7.90
2019-05-02T22:31:22.623Z,4.33
2019-05-02T22:33:52.804Z,5.57
2019-05-02T22:36:21.825Z,6.23
2019-05-02T22:38:57.523Z,6.10
2019-05-02T22:41:25.724Z,5.87
2019-05-02T22:43:53.923Z,6.13
2019-05-02T22:46:43.199Z,7.47
2019-05-02T22:49:14.635Z,5.47
2019-05-02T22:51:42.829Z,5.83
2019-05-02T22:54:23.357Z,4.47
2019-05-02T22:56:42.632Z,5.73
2019-05-02T22:59:10.932Z,6.73
2019-05-02T23:01:39.412Z,6.27
2019-05-02T23:04:07.611Z,7.00
2019-05-02T23:06:36.069Z,5.57
2019-05-02T23:09:06.207Z,6.13
2019-05-02T23:11:34.665Z,7.07
2019-05-02T23:14:02.940Z,8.57
2019-05-02T23:16:32.248Z,7.10
2019-05-02T23:19:02.778Z,7.70
2019-05-02T23:21:32.561Z,7.97
2019-05-02T23:24:02.906Z,7.23
2019-05-02T23:26:35.394Z,7.07
2019-05-02T23:29:05.256Z,8.23
2019-05-02T23:31:33.771Z,10.80
2019-05-02T23:34:02.242Z,8.70
2019-05-02T23:36:32.528Z,7.40
2019-05-02T23:39:01.838Z,6.40
2019-05-02T23:41:30.240Z,8.03
2019-05-02T23:43:58.439Z,7.20
2019-05-02T23:46:26.637Z,8.40
2019-05-02T23:48:55.083Z,7.63
2019-05-02T23:51:23.563Z,12.40
2019-05-02T23:53:52.764Z,12.30
2019-05-02T23:56:22.117Z,11.10
2019-05-02T23:58:51.950Z,10.93
